sensor_id;sensor_type;location;lat;lon;timestamp;temperature;humidity
17948;DHT22;9099;47.958;11.366;2023-05-18T00:01:48;8.40;99.90
17948;DHT22;9099;47.958;11.366;2023-05-18T00:04:30;8.40;99.90
17948;DHT22;9099;47.958;11.366;2023-05-18T00:07:50;8.50;99.90
17948;DHT22;9099;47.958;11.366;2023-05-18T00:10:26;8.40;99.90
17948;DHT22;9099;47.958;11.366;2023-05-18T00:13:08;8.40;99.90
17948;DHT22;9099;47.958;11.366;2023-05-18T00:21:58;8.20;99.90
17948;DHT22;9099;47.958;11.366;2023-05-18T00:27:53;8.10;99.90
17948;DHT22;9099;47.958;11.366;2023-05-18T00:33:27;8.10;99.90
17948;DHT22;9099;47.958;11.366;2023-05-18T00:36:03;8.10;99.90
17948;DHT22;9099;47.958;11.366;2023-05-18T00:38:38;8.00;99.90
17948;DHT22;9099;47.958;11.366;2023-05-18T00:41:19;8.00;99.90
17948;DHT22;9099;47.958;11.366;2023-05-18T00:43:55;8.00;99.90
17948;DHT22;9099;47.958;11.366;2023-05-18T00:46:30;8.00;99.90
17948;DHT22;9099;47.958;11.366;2023-05-18T00:49:18;7.90;99.90
17948;DHT22;9099;47.958;11.366;2023-05-18T00:51:50;7.90;99.90
17948;DHT22;9099;47.958;11.366;2023-05-18T00:54:18;7.80;99.90
17948;DHT22;9099;47.958;11.366;2023-05-18T00:56:46;7.80;99.90
17948;DHT22;9099;47.958;11.366;2023-05-18T00:59:13;7.80;99.90
17948;DHT22;9099;47.958;11.366;2023-05-18T01:01:42;7.80;99.90
17948;DHT22;9099;47.958;11.366;2023-05-18T01:04:11;7.80;99.90
17948;DHT22;9099;47.958;11.366;2023-05-18T01:06:39;7.70;99.90
17948;DHT22;9099;47.958;11.366;2023-05-18T01:09:08;7.70;99.90
17948;DHT22;9099;47.958;11.366;2023-05-18T01:11:47;7.70;99.90
17948;DHT22;9099;47.958;11.366;2023-05-18T01:14:24;7.60;99.90
17948;DHT22;9099;47.958;11.366;2023-05-18T01:17:02;7.60;99.90
17948;DHT22;9099;47.958;11.366;2023-05-18T01:19:58;7.60;99.90
17948;DHT22;9099;47.958;11.366;2023-05-18T01:25:33;7.60;99.90
17948;DHT22;9099;47.958;11.366;2023-05-18T01:28:14;7.50;99.90
17948;DHT22;9099;47.958;11.366;2023-05-18T01:30:42;7.50;99.90
17948;DHT22;9099;47.958;11.366;2023-05-18T01:33:11;7.50;99.90
17948;DHT22;9099;47.958;11.366;2023-05-18T01:36:24;7.60;99.90
17948;DHT22;9099;47.958;11.366;2023-05-18T01:39:17;7.60;99.90
17948;DHT22;9099;47.958;11.366;2023-05-18T01:41:50;7.70;99.90
17948;DHT22;9099;47.958;11.366;2023-05-18T01:47:36;7.70;99.90
17948;DHT22;9099;47.958;11.366;2023-05-18T01:50:16;7.70;99.90
17948;DHT22;9099;47.958;11.366;2023-05-18T01:53:13;7.80;99.90
17948;DHT22;9099;47.958;11.366;2023-05-18T01:55:52;7.80;99.90
17948;DHT22;9099;47.958;11.366;2023-05-18T01:58:21;7.90;99.90
17948;DHT22;9099;47.958;11.366;2023-05-18T02:00:51;7.90;99.90
17948;DHT22;9099;47.958;11.366;2023-05-18T02:03:18;7.90;99.90
17948;DHT22;9099;47.958;11.366;2023-05-18T02:05:45;7.90;99.90
17948;DHT22;9099;47.958;11.366;2023-05-18T02:08:28;7.90;99.90
17948;DHT22;9099;47.958;11.366;2023-05-18T02:11:14;7.90;99.90
17948;DHT22;9099;47.958;11.366;2023-05-18T02:13:57;7.90;99.90
17948;DHT22;9099;47.958;11.366;2023-05-18T02:16:26;8.00;99.90
17948;DHT22;9099;47.958;11.366;2023-05-18T02:18:53;8.00;99.90
17948;DHT22;9099;47.958;11.366;2023-05-18T02:21:20;8.00;99.90
17948;DHT22;9099;47.958;11.366;2023-05-18T02:23:47;8.00;99.90
17948;DHT22;9099;47.958;11.366;2023-05-18T02:26:14;8.00;99.90
17948;DHT22;9099;47.958;11.366;2023-05-18T02:28:41;8.00;99.90
17948;DHT22;9099;47.958;11.366;2023-05-18T02:31:09;7.90;99.90
17948;DHT22;9099;47.958;11.366;2023-05-18T02:33:44;7.90;99.90
17948;DHT22;9099;47.958;11.366;2023-05-18T02:36:15;7.80;99.90
17948;DHT22;9099;47.958;11.366;2023-05-18T02:38:43;7.70;99.90
17948;DHT22;9099;47.958;11.366;2023-05-18T02:41:10;7.70;99.90
17948;DHT22;9099;47.958;11.366;2023-05-18T02:43:38;7.70;99.90
17948;DHT22;9099;47.958;11.366;2023-05-18T02:46:06;7.70;99.90
17948;DHT22;9099;47.958;11.366;2023-05-18T02:48:33;7.70;99.90
17948;DHT22;9099;47.958;11.366;2023-05-18T02:51:01;7.80;99.90
17948;DHT22;9099;47.958;11.366;2023-05-18T02:53:28;7.80;99.90
17948;DHT22;9099;47.958;11.366;2023-05-18T02:55:55;7.80;99.90
17948;DHT22;9099;47.958;11.366;2023-05-18T02:58:22;7.80;99.90
17948;DHT22;9099;47.958;11.366;2023-05-18T03:00:52;7.80;99.90
17948;DHT22;9099;47.958;11.366;2023-05-18T03:03:20;7.80;99.90
17948;DHT22;9099;47.958;11.366;2023-05-18T03:05:48;7.70;99.90
17948;DHT22;9099;47.958;11.366;2023-05-18T03:08:18;7.70;99.90
17948;DHT22;9099;47.958;11.366;2023-05-18T03:10:45;7.70;99.90
17948;DHT22;9099;47.958;11.366;2023-05-18T03:13:12;7.60;99.90
17948;DHT22;9099;47.958;11.366;2023-05-18T03:15:39;7.60;99.90
17948;DHT22;9099;47.958;11.366;2023-05-18T03:18:06;7.60;99.90
17948;DHT22;9099;47.958;11.366;2023-05-18T03:20:33;7.60;99.90
17948;DHT22;9099;47.958;11.366;2023-05-18T03:23:03;7.50;99.90
17948;DHT22;9099;47.958;11.366;2023-05-18T03:25:31;7.60;99.90
17948;DHT22;9099;47.958;11.366;2023-05-18T03:28:02;7.50;99.90
17948;DHT22;9099;47.958;11.366;2023-05-18T03:30:30;7.50;99.90
17948;DHT22;9099;47.958;11.366;2023-05-18T03:32:58;7.50;99.90
17948;DHT22;9099;47.958;11.366;2023-05-18T03:35:26;7.50;99.90
17948;DHT22;9099;47.958;11.366;2023-05-18T03:37:54;7.50;99.90
17948;DHT22;9099;47.958;11.366;2023-05-18T03:40:22;7.50;99.90
17948;DHT22;9099;47.958;11.366;2023-05-18T03:42:51;7.50;99.90
17948;DHT22;9099;47.958;11.366;2023-05-18T03:45:17;7.60;99.90
17948;DHT22;9099;47.958;11.366;2023-05-18T03:47:45;7.60;99.90
17948;DHT22;9099;47.958;11.366;2023-05-18T03:50:12;7.60;99.90
17948;DHT22;9099;47.958;11.366;2023-05-18T03:52:41;7.50;99.90
17948;DHT22;9099;47.958;11.366;2023-05-18T03:55:09;7.50;99.90
17948;DHT22;9099;47.958;11.366;2023-05-18T03:57:36;7.40;99.90
17948;DHT22;9099;47.958;11.366;2023-05-18T04:00:06;7.40;99.90
17948;DHT22;9099;47.958;11.366;2023-05-18T04:02:36;7.40;99.90
17948;DHT22;9099;47.958;11.366;2023-05-18T04:05:03;7.40;99.90
17948;DHT22;9099;47.958;11.366;2023-05-18T04:07:30;7.40;99.90
17948;DHT22;9099;47.958;11.366;2023-05-18T04:09:57;7.30;99.90
17948;DHT22;9099;47.958;11.366;2023-05-18T04:12:26;7.30;99.90
17948;DHT22;9099;47.958;11.366;2023-05-18T04:15:14;7.30;99.90
17948;DHT22;9099;47.958;11.366;2023-05-18T04:17:50;7.30;99.90
17948;DHT22;9099;47.958;11.366;2023-05-18T04:20:18;7.40;99.90
17948;DHT22;9099;47.958;11.366;2023-05-18T04:22:46;7.40;99.90
17948;DHT22;9099;47.958;11.366;2023-05-18T04:25:14;7.40;99.90
17948;DHT22;9099;47.958;11.366;2023-05-18T04:27:41;7.40;99.90
17948;DHT22;9099;47.958;11.366;2023-05-18T04:30:11;7.40;99.90
17948;DHT22;9099;47.958;11.366;2023-05-18T04:32:39;7.40;99.90
17948;DHT22;9099;47.958;11.366;2023-05-18T04:35:08;7.40;99.90
17948;DHT22;9099;47.958;11.366;2023-05-18T04:37:36;7.40;99.90
17948;DHT22;9099;47.958;11.366;2023-05-18T04:40:06;7.50;99.90
17948;DHT22;9099;47.958;11.366;2023-05-18T04:42:37;7.50;99.90
17948;DHT22;9099;47.958;11.366;2023-05-18T05:46:18;10.40;99.90
17948;DHT22;9099;47.958;11.366;2023-05-18T05:48:45;10.60;99.90
17948;DHT22;9099;47.958;11.366;2023-05-18T05:51:12;10.80;99.90
17948;DHT22;9099;47.958;11.366;2023-05-18T05:53:39;11.00;99.90
17948;DHT22;9099;47.958;11.366;2023-05-18T05:56:08;11.00;99.90
17948;DHT22;9099;47.958;11.366;2023-05-18T05:58:35;11.10;99.90
17948;DHT22;9099;47.958;11.366;2023-05-18T06:01:03;11.20;99.90
17948;DHT22;9099;47.958;11.366;2023-05-18T06:03:32;11.40;99.90
17948;DHT22;9099;47.958;11.366;2023-05-18T06:05:59;11.40;99.90
17948;DHT22;9099;47.958;11.366;2023-05-18T06:08:26;11.20;99.90
17948;DHT22;9099;47.958;11.366;2023-05-18T06:10:54;11.20;99.90
17948;DHT22;9099;47.958;11.366;2023-05-18T06:13:21;11.20;99.90
17948;DHT22;9099;47.958;11.366;2023-05-18T06:15:48;11.10;99.90
17948;DHT22;9099;47.958;11.366;2023-05-18T06:18:15;11.00;99.90
17948;DHT22;9099;47.958;11.366;2023-05-18T06:20:44;10.90;99.90
17948;DHT22;9099;47.958;11.366;2023-05-18T06:23:11;10.80;99.90
17948;DHT22;9099;47.958;11.366;2023-05-18T06:25:38;10.80;99.90
17948;DHT22;9099;47.958;11.366;2023-05-18T06:28:05;11.00;99.90
17948;DHT22;9099;47.958;11.366;2023-05-18T06:30:32;11.00;99.90
17948;DHT22;9099;47.958;11.366;2023-05-18T06:32:59;11.10;99.90
17948;DHT22;9099;47.958;11.366;2023-05-18T06:35:26;11.30;99.90
17948;DHT22;9099;47.958;11.366;2023-05-18T06:37:54;11.40;99.90
17948;DHT22;9099;47.958;11.366;2023-05-18T06:40:21;11.40;99.90
17948;DHT22;9099;47.958;11.366;2023-05-18T06:42:48;11.40;99.90
17948;DHT22;9099;47.958;11.366;2023-05-18T06:45:15;11.40;99.90
17948;DHT22;9099;47.958;11.366;2023-05-18T06:47:44;11.60;99.90
17948;DHT22;9099;47.958;11.366;2023-05-18T06:50:11;11.80;99.90
17948;DHT22;9099;47.958;11.366;2023-05-18T06:52:37;12.00;99.90
17948;DHT22;9099;47.958;11.366;2023-05-18T06:55:07;12.20;99.90
17948;DHT22;9099;47.958;11.366;2023-05-18T06:57:34;12.20;99.90
17948;DHT22;9099;47.958;11.366;2023-05-18T07:00:01;12.10;99.90
17948;DHT22;9099;47.958;11.366;2023-05-18T07:02:31;12.10;99.90
17948;DHT22;9099;47.958;11.366;2023-05-18T07:04:58;12.10;99.90
17948;DHT22;9099;47.958;11.366;2023-05-18T07:07:25;12.30;99.90
17948;DHT22;9099;47.958;11.366;2023-05-18T07:09:52;12.40;99.90
17948;DHT22;9099;47.958;11.366;2023-05-18T07:12:20;12.60;99.90
17948;DHT22;9099;47.958;11.366;2023-05-18T07:14:47;12.60;99.90
17948;DHT22;9099;47.958;11.366;2023-05-18T07:17:15;12.80;99.90
17948;DHT22;9099;47.958;11.366;2023-05-18T07:19:41;12.80;99.90
17948;DHT22;9099;47.958;11.366;2023-05-18T07:22:08;12.40;99.90
17948;DHT22;9099;47.958;11.366;2023-05-18T07:24:35;12.20;99.90
17948;DHT22;9099;47.958;11.366;2023-05-18T07:27:03;12.20;99.90
17948;DHT22;9099;47.958;11.366;2023-05-18T07:29:32;12.10;99.90
17948;DHT22;9099;47.958;11.366;2023-05-18T07:31:59;12.10;99.90
17948;DHT22;9099;47.958;11.366;2023-05-18T07:34:26;12.20;99.90
17948;DHT22;9099;47.958;11.366;2023-05-18T07:36:53;12.40;99.90
17948;DHT22;9099;47.958;11.366;2023-05-18T07:39:20;12.60;99.90
17948;DHT22;9099;47.958;11.366;2023-05-18T07:41:53;12.70;99.90
17948;DHT22;9099;47.958;11.366;2023-05-18T07:44:19;12.60;99.90
17948;DHT22;9099;47.958;11.366;2023-05-18T07:46:48;12.60;99.90
17948;DHT22;9099;47.958;11.366;2023-05-18T07:49:15;12.70;99.90
17948;DHT22;9099;47.958;11.366;2023-05-18T07:51:42;12.90;99.90
17948;DHT22;9099;47.958;11.366;2023-05-18T07:54:09;12.80;99.90
17948;DHT22;9099;47.958;11.366;2023-05-18T07:56:35;12.90;99.90
17948;DHT22;9099;47.958;11.366;2023-05-18T07:59:02;12.70;99.90
17948;DHT22;9099;47.958;11.366;2023-05-18T08:01:29;12.70;99.90
17948;DHT22;9099;47.958;11.366;2023-05-18T08:03:57;12.70;99.90
17948;DHT22;9099;47.958;11.366;2023-05-18T08:06:24;13.00;99.90
17948;DHT22;9099;47.958;11.366;2023-05-18T08:08:51;13.10;99.90
17948;DHT22;9099;47.958;11.366;2023-05-18T08:11:21;13.00;99.90
17948;DHT22;9099;47.958;11.366;2023-05-18T08:13:48;12.80;99.90
17948;DHT22;9099;47.958;11.366;2023-05-18T08:16:15;12.90;99.90
17948;DHT22;9099;47.958;11.366;2023-05-18T08:18:41;13.20;99.90
17948;DHT22;9099;47.958;11.366;2023-05-18T08:21:10;13.60;99.90
17948;DHT22;9099;47.958;11.366;2023-05-18T08:23:37;13.70;99.90
17948;DHT22;9099;47.958;11.366;2023-05-18T08:26:04;14.00;99.90
17948;DHT22;9099;47.958;11.366;2023-05-18T08:28:32;14.10;99.90
17948;DHT22;9099;47.958;11.366;2023-05-18T08:30:59;14.10;99.90
17948;DHT22;9099;47.958;11.366;2023-05-18T08:33:26;13.80;99.90
17948;DHT22;9099;47.958;11.366;2023-05-18T08:35:53;14.00;99.90
17948;DHT22;9099;47.958;11.366;2023-05-18T08:38:22;14.10;99.90
17948;DHT22;9099;47.958;11.366;2023-05-18T08:40:54;14.30;99.90
17948;DHT22;9099;47.958;11.366;2023-05-18T08:43:24;14.10;99.90
17948;DHT22;9099;47.958;11.366;2023-05-18T08:46:03;14.00;99.90
17948;DHT22;9099;47.958;11.366;2023-05-18T08:48:31;14.00;99.90
17948;DHT22;9099;47.958;11.366;2023-05-18T08:51:01;13.80;99.90
17948;DHT22;9099;47.958;11.366;2023-05-18T08:53:31;14.10;99.90
17948;DHT22;9099;47.958;11.366;2023-05-18T08:55:59;14.60;99.90
17948;DHT22;9099;47.958;11.366;2023-05-18T08:58:31;14.50;99.90
17948;DHT22;9099;47.958;11.366;2023-05-18T09:01:00;14.70;99.90
17948;DHT22;9099;47.958;11.366;2023-05-18T09:03:28;14.90;99.90
17948;DHT22;9099;47.958;11.366;2023-05-18T09:05:56;15.10;99.90
17948;DHT22;9099;47.958;11.366;2023-05-18T09:08:24;15.20;99.90
17948;DHT22;9099;47.958;11.366;2023-05-18T09:10:55;15.60;99.90
17948;DHT22;9099;47.958;11.366;2023-05-18T09:13:23;15.70;99.90
17948;DHT22;9099;47.958;11.366;2023-05-18T09:15:51;16.00;99.90
17948;DHT22;9099;47.958;11.366;2023-05-18T09:18:18;15.90;99.90
17948;DHT22;9099;47.958;11.366;2023-05-18T09:20:45;15.60;99.90
17948;DHT22;9099;47.958;11.366;2023-05-18T09:23:13;15.20;99.90
17948;DHT22;9099;47.958;11.366;2023-05-18T09:25:43;15.60;99.90
17948;DHT22;9099;47.958;11.366;2023-05-18T09:28:12;15.70;99.90
17948;DHT22;9099;47.958;11.366;2023-05-18T09:30:40;15.30;99.90
17948;DHT22;9099;47.958;11.366;2023-05-18T09:33:15;14.90;99.90
17948;DHT22;9099;47.958;11.366;2023-05-18T09:35:43;14.80;99.90
17948;DHT22;9099;47.958;11.366;2023-05-18T09:38:11;14.60;99.90
17948;DHT22;9099;47.958;11.366;2023-05-18T09:40:43;14.90;99.90
17948;DHT22;9099;47.958;11.366;2023-05-18T09:43:11;14.60;99.90
17948;DHT22;9099;47.958;11.366;2023-05-18T09:45:43;14.20;99.90
17948;DHT22;9099;47.958;11.366;2023-05-18T09:48:11;13.90;99.90
17948;DHT22;9099;47.958;11.366;2023-05-18T09:50:38;13.80;99.90
17948;DHT22;9099;47.958;11.366;2023-05-18T09:53:06;13.80;99.90
17948;DHT22;9099;47.958;11.366;2023-05-18T09:55:36;13.80;99.90
17948;DHT22;9099;47.958;11.366;2023-05-18T09:58:06;13.70;99.90
17948;DHT22;9099;47.958;11.366;2023-05-18T10:00:40;13.70;99.90
17948;DHT22;9099;47.958;11.366;2023-05-18T10:03:16;13.50;99.90
17948;DHT22;9099;47.958;11.366;2023-05-18T10:05:43;13.30;99.90
17948;DHT22;9099;47.958;11.366;2023-05-18T10:08:11;13.30;99.90
17948;DHT22;9099;47.958;11.366;2023-05-18T10:10:41;13.30;99.90
17948;DHT22;9099;47.958;11.366;2023-05-18T10:13:11;13.40;99.90
17948;DHT22;9099;47.958;11.366;2023-05-18T10:15:48;13.30;99.90
17948;DHT22;9099;47.958;11.366;2023-05-18T10:18:20;13.20;99.90
17948;DHT22;9099;47.958;11.366;2023-05-18T10:20:49;13.10;99.90
17948;DHT22;9099;47.958;11.366;2023-05-18T10:23:17;13.10;99.90
17948;DHT22;9099;47.958;11.366;2023-05-18T10:25:45;13.20;99.90
17948;DHT22;9099;47.958;11.366;2023-05-18T10:28:17;13.20;99.90
17948;DHT22;9099;47.958;11.366;2023-05-18T10:30:51;13.10;99.90
17948;DHT22;9099;47.958;11.366;2023-05-18T10:33:19;13.20;99.90
17948;DHT22;9099;47.958;11.366;2023-05-18T10:35:48;13.10;99.90
17948;DHT22;9099;47.958;11.366;2023-05-18T10:38:18;13.10;99.90
17948;DHT22;9099;47.958;11.366;2023-05-18T10:40:47;13.00;99.90
17948;DHT22;9099;47.958;11.366;2023-05-18T10:43:17;13.10;99.90
17948;DHT22;9099;47.958;11.366;2023-05-18T10:45:46;13.10;99.90
17948;DHT22;9099;47.958;11.366;2023-05-18T10:48:16;13.10;99.90
17948;DHT22;9099;47.958;11.366;2023-05-18T10:50:47;13.30;99.90
17948;DHT22;9099;47.958;11.366;2023-05-18T10:53:16;13.40;99.90
17948;DHT22;9099;47.958;11.366;2023-05-18T10:55:43;13.40;99.90
17948;DHT22;9099;47.958;11.366;2023-05-18T10:58:12;13.60;99.90
17948;DHT22;9099;47.958;11.366;2023-05-18T11:00:42;13.50;99.90
17948;DHT22;9099;47.958;11.366;2023-05-18T11:03:11;13.50;99.90
17948;DHT22;9099;47.958;11.366;2023-05-18T11:05:41;13.50;99.90
17948;DHT22;9099;47.958;11.366;2023-05-18T11:08:08;13.40;99.90
17948;DHT22;9099;47.958;11.366;2023-05-18T11:10:39;13.30;99.90
17948;DHT22;9099;47.958;11.366;2023-05-18T11:13:07;13.20;99.90
17948;DHT22;9099;47.958;11.366;2023-05-18T11:16:05;13.30;99.90
17948;DHT22;9099;47.958;11.366;2023-05-18T11:18:41;13.40;99.90
17948;DHT22;9099;47.958;11.366;2023-05-18T11:21:30;13.50;99.90
17948;DHT22;9099;47.958;11.366;2023-05-18T11:24:24;13.70;99.90
17948;DHT22;9099;47.958;11.366;2023-05-18T11:26:54;13.80;99.90
17948;DHT22;9099;47.958;11.366;2023-05-18T11:29:23;14.00;99.90
17948;DHT22;9099;47.958;11.366;2023-05-18T11:31:52;14.10;99.90
17948;DHT22;9099;47.958;11.366;2023-05-18T11:34:42;15.10;99.90
17948;DHT22;9099;47.958;11.366;2023-05-18T11:37:13;16.00;99.90
17948;DHT22;9099;47.958;11.366;2023-05-18T11:39:40;16.60;99.90
17948;DHT22;9099;47.958;11.366;2023-05-18T11:42:08;16.70;99.90
17948;DHT22;9099;47.958;11.366;2023-05-18T11:44:36;17.40;99.90
17948;DHT22;9099;47.958;11.366;2023-05-18T11:47:08;17.00;99.90
17948;DHT22;9099;47.958;11.366;2023-05-18T11:49:43;16.00;99.90
17948;DHT22;9099;47.958;11.366;2023-05-18T11:52:18;15.50;99.90
17948;DHT22;9099;47.958;11.366;2023-05-18T11:54:47;15.30;99.90
17948;DHT22;9099;47.958;11.366;2023-05-18T11:57:16;15.20;99.90
17948;DHT22;9099;47.958;11.366;2023-05-18T11:59:44;15.10;99.90
17948;DHT22;9099;47.958;11.366;2023-05-18T12:02:20;15.00;99.90
17948;DHT22;9099;47.958;11.366;2023-05-18T12:04:48;14.90;99.90
17948;DHT22;9099;47.958;11.366;2023-05-18T12:07:18;15.00;99.90
17948;DHT22;9099;47.958;11.366;2023-05-18T12:09:47;14.90;99.90
17948;DHT22;9099;47.958;11.366;2023-05-18T12:12:15;15.10;99.90
17948;DHT22;9099;47.958;11.366;2023-05-18T12:14:46;15.10;99.90
17948;DHT22;9099;47.958;11.366;2023-05-18T12:17:15;15.40;99.90
17948;DHT22;9099;47.958;11.366;2023-05-18T12:19:43;15.90;99.90
17948;DHT22;9099;47.958;11.366;2023-05-18T12:22:10;16.10;99.90
17948;DHT22;9099;47.958;11.366;2023-05-18T12:24:40;16.50;99.90
17948;DHT22;9099;47.958;11.366;2023-05-18T12:27:11;16.70;99.90
17948;DHT22;9099;47.958;11.366;2023-05-18T12:29:38;16.90;99.90
17948;DHT22;9099;47.958;11.366;2023-05-18T12:32:07;16.80;99.90
17948;DHT22;9099;47.958;11.366;2023-05-18T12:34:35;16.80;99.90
17948;DHT22;9099;47.958;11.366;2023-05-18T12:37:03;16.80;99.90
17948;DHT22;9099;47.958;11.366;2023-05-18T12:39:30;16.40;99.90
17948;DHT22;9099;47.958;11.366;2023-05-18T12:42:12;16.60;99.90
17948;DHT22;9099;47.958;11.366;2023-05-18T12:44:42;16.50;99.90
17948;DHT22;9099;47.958;11.366;2023-05-18T12:47:10;16.30;99.90
17948;DHT22;9099;47.958;11.366;2023-05-18T12:49:39;16.30;99.90
17948;DHT22;9099;47.958;11.366;2023-05-18T12:52:10;16.10;99.90
17948;DHT22;9099;47.958;11.366;2023-05-18T12:54:47;16.00;99.90
17948;DHT22;9099;47.958;11.366;2023-05-18T12:57:21;15.70;99.90
17948;DHT22;9099;47.958;11.366;2023-05-18T12:59:51;15.60;99.90
17948;DHT22;9099;47.958;11.366;2023-05-18T13:02:32;15.60;99.90
17948;DHT22;9099;47.958;11.366;2023-05-18T13:05:05;15.60;99.90
17948;DHT22;9099;47.958;11.366;2023-05-18T13:07:34;15.40;99.90
17948;DHT22;9099;47.958;11.366;2023-05-18T13:10:07;15.30;99.90
17948;DHT22;9099;47.958;11.366;2023-05-18T13:12:42;15.10;99.90
17948;DHT22;9099;47.958;11.366;2023-05-18T13:15:11;15.00;99.90
17948;DHT22;9099;47.958;11.366;2023-05-18T13:17:46;14.70;99.90
17948;DHT22;9099;47.958;11.366;2023-05-18T13:20:13;14.70;99.90
17948;DHT22;9099;47.958;11.366;2023-05-18T13:22:42;14.70;99.90
17948;DHT22;9099;47.958;11.366;2023-05-18T13:25:09;14.80;99.90
17948;DHT22;9099;47.958;11.366;2023-05-18T13:27:37;14.90;99.90
17948;DHT22;9099;47.958;11.366;2023-05-18T13:30:07;15.00;99.90
17948;DHT22;9099;47.958;11.366;2023-05-18T13:32:34;15.30;99.90
17948;DHT22;9099;47.958;11.366;2023-05-18T13:35:04;15.30;99.90
17948;DHT22;9099;47.958;11.366;2023-05-18T13:37:31;15.10;99.90
17948;DHT22;9099;47.958;11.366;2023-05-18T13:39:58;14.90;99.90
17948;DHT22;9099;47.958;11.366;2023-05-18T13:42:25;14.70;99.90
17948;DHT22;9099;47.958;11.366;2023-05-18T13:44:54;14.70;99.90
17948;DHT22;9099;47.958;11.366;2023-05-18T13:47:23;14.50;99.90
17948;DHT22;9099;47.958;11.366;2023-05-18T13:49:50;14.30;99.90
17948;DHT22;9099;47.958;11.366;2023-05-18T13:52:17;14.10;99.90
17948;DHT22;9099;47.958;11.366;2023-05-18T13:54:44;14.10;99.90
17948;DHT22;9099;47.958;11.366;2023-05-18T13:57:10;14.00;99.90
17948;DHT22;9099;47.958;11.366;2023-05-18T13:59:37;14.00;99.90
17948;DHT22;9099;47.958;11.366;2023-05-18T14:02:04;13.90;99.90
17948;DHT22;9099;47.958;11.366;2023-05-18T14:04:33;13.90;99.90
17948;DHT22;9099;47.958;11.366;2023-05-18T14:07:01;13.90;99.90
17948;DHT22;9099;47.958;11.366;2023-05-18T14:09:28;13.90;99.90
17948;DHT22;9099;47.958;11.366;2023-05-18T14:11:55;13.90;99.90
17948;DHT22;9099;47.958;11.366;2023-05-18T14:14:22;14.00;99.90
17948;DHT22;9099;47.958;11.366;2023-05-18T14:16:49;14.10;99.90
17948;DHT22;9099;47.958;11.366;2023-05-18T14:19:16;14.00;99.90
17948;DHT22;9099;47.958;11.366;2023-05-18T14:21:45;13.90;99.90
17948;DHT22;9099;47.958;11.366;2023-05-18T14:24:12;14.10;99.90
17948;DHT22;9099;47.958;11.366;2023-05-18T14:26:41;14.10;99.90
17948;DHT22;9099;47.958;11.366;2023-05-18T14:29:08;14.10;99.90
17948;DHT22;9099;47.958;11.366;2023-05-18T14:31:35;13.90;99.90
17948;DHT22;9099;47.958;11.366;2023-05-18T14:34:02;13.90;99.90
17948;DHT22;9099;47.958;11.366;2023-05-18T14:36:29;13.90;99.90
17948;DHT22;9099;47.958;11.366;2023-05-18T14:38:57;13.70;99.90
17948;DHT22;9099;47.958;11.366;2023-05-18T14:41:24;13.80;99.90
17948;DHT22;9099;47.958;11.366;2023-05-18T14:43:51;13.90;99.90
17948;DHT22;9099;47.958;11.366;2023-05-18T14:46:18;13.80;99.90
17948;DHT22;9099;47.958;11.366;2023-05-18T14:48:45;13.60;99.90
17948;DHT22;9099;47.958;11.366;2023-05-18T14:51:12;13.60;99.90
17948;DHT22;9099;47.958;11.366;2023-05-18T14:53:40;13.60;99.90
17948;DHT22;9099;47.958;11.366;2023-05-18T14:56:09;13.50;99.90
17948;DHT22;9099;47.958;11.366;2023-05-18T14:58:36;13.50;99.90
17948;DHT22;9099;47.958;11.366;2023-05-18T15:01:03;13.40;99.90
17948;DHT22;9099;47.958;11.366;2023-05-18T15:03:30;13.40;99.90
17948;DHT22;9099;47.958;11.366;2023-05-18T15:05:57;13.30;99.90
17948;DHT22;9099;47.958;11.366;2023-05-18T15:08:24;13.30;99.90
17948;DHT22;9099;47.958;11.366;2023-05-18T15:10:51;13.20;99.90
17948;DHT22;9099;47.958;11.366;2023-05-18T15:13:19;13.20;99.90
17948;DHT22;9099;47.958;11.366;2023-05-18T15:15:46;13.20;99.90
17948;DHT22;9099;47.958;11.366;2023-05-18T15:18:14;13.10;99.90
17948;DHT22;9099;47.958;11.366;2023-05-18T15:20:40;13.00;99.90
17948;DHT22;9099;47.958;11.366;2023-05-18T15:23:08;13.00;99.90
17948;DHT22;9099;47.958;11.366;2023-05-18T15:25:35;13.10;99.90
17948;DHT22;9099;47.958;11.366;2023-05-18T15:28:02;13.00;99.90
17948;DHT22;9099;47.958;11.366;2023-05-18T15:30:31;13.00;99.90
17948;DHT22;9099;47.958;11.366;2023-05-18T15:32:58;13.10;99.90
17948;DHT22;9099;47.958;11.366;2023-05-18T15:35:26;13.00;99.90
17948;DHT22;9099;47.958;11.366;2023-05-18T15:37:53;13.00;99.90
17948;DHT22;9099;47.958;11.366;2023-05-18T15:40:20;13.00;99.90
17948;DHT22;9099;47.958;11.366;2023-05-18T15:42:47;13.00;99.90
17948;DHT22;9099;47.958;11.366;2023-05-18T15:45:14;13.00;99.90
17948;DHT22;9099;47.958;11.366;2023-05-18T15:47:42;13.00;99.90
17948;DHT22;9099;47.958;11.366;2023-05-18T15:50:10;13.00;99.90
17948;DHT22;9099;47.958;11.366;2023-05-18T15:52:37;13.00;99.90
17948;DHT22;9099;47.958;11.366;2023-05-18T15:55:06;12.90;99.90
17948;DHT22;9099;47.958;11.366;2023-05-18T15:57:33;12.90;99.90
17948;DHT22;9099;47.958;11.366;2023-05-18T16:00:00;12.80;99.90
17948;DHT22;9099;47.958;11.366;2023-05-18T16:02:30;12.80;99.90
17948;DHT22;9099;47.958;11.366;2023-05-18T16:04:58;12.90;99.90
17948;DHT22;9099;47.958;11.366;2023-05-18T16:07:25;12.90;99.90
17948;DHT22;9099;47.958;11.366;2023-05-18T16:09:53;12.80;99.90
17948;DHT22;9099;47.958;11.366;2023-05-18T16:12:20;12.80;99.90
17948;DHT22;9099;47.958;11.366;2023-05-18T16:14:47;12.80;99.90
17948;DHT22;9099;47.958;11.366;2023-05-18T16:17:14;12.70;99.90
17948;DHT22;9099;47.958;11.366;2023-05-18T16:19:41;12.70;99.90
17948;DHT22;9099;47.958;11.366;2023-05-18T16:22:10;12.70;99.90
17948;DHT22;9099;47.958;11.366;2023-05-18T16:24:36;12.70;99.90
17948;DHT22;9099;47.958;11.366;2023-05-18T16:27:04;12.60;99.90
17948;DHT22;9099;47.958;11.366;2023-05-18T16:29:31;12.70;99.90
17948;DHT22;9099;47.958;11.366;2023-05-18T16:31:58;12.80;99.90
17948;DHT22;9099;47.958;11.366;2023-05-18T16:34:25;12.80;99.90
17948;DHT22;9099;47.958;11.366;2023-05-18T16:36:52;12.90;99.90
17948;DHT22;9099;47.958;11.366;2023-05-18T16:39:22;13.00;99.90
17948;DHT22;9099;47.958;11.366;2023-05-18T16:41:49;13.10;99.90
17948;DHT22;9099;47.958;11.366;2023-05-18T16:44:16;13.20;99.90
17948;DHT22;9099;47.958;11.366;2023-05-18T16:46:43;13.20;99.90
17948;DHT22;9099;47.958;11.366;2023-05-18T16:49:10;13.20;99.90
17948;DHT22;9099;47.958;11.366;2023-05-18T16:51:37;13.20;99.90
17948;DHT22;9099;47.958;11.366;2023-05-18T16:54:05;13.30;99.90
17948;DHT22;9099;47.958;11.366;2023-05-18T16:56:33;13.30;99.90
17948;DHT22;9099;47.958;11.366;2023-05-18T16:59:01;13.30;99.90
17948;DHT22;9099;47.958;11.366;2023-05-18T17:01:28;13.10;99.90
17948;DHT22;9099;47.958;11.366;2023-05-18T17:03:55;13.00;99.90
17948;DHT22;9099;47.958;11.366;2023-05-18T17:06:24;12.90;99.90
17948;DHT22;9099;47.958;11.366;2023-05-18T17:08:51;12.80;99.90
17948;DHT22;9099;47.958;11.366;2023-05-18T17:11:24;12.90;99.90